ZSJN

Jinan Yaoqiang International

Airport
ICAO code
ZSJN
Summary
ICAO Region
APAC
ICAO Territory
Location

Jinan, Shandong,

Coordinates
36° 51' 26" N , 117° 12' 58" E
Metar
ZSJN 240407Z 34005MPS 9999 SCT026 31/15 Q1008 NOSIG

Jinan Yaoqiang International Airport (IATA: TNA) is the airport serving Jinan, the capital city of Shandong Province, China. The airport is located approximately 33 km northeast of the city center and immediately to the north of the town of Yaoqiang.

Airport map

Aerial View

SKYbrary Partners:

Safety knowledge contributed by: